createdAt,value
2018-10-16T00:00:26.371Z,9.83
2018-10-16T00:02:56.290Z,11.67
2018-10-16T00:05:26.063Z,10.70
2018-10-16T00:07:56.220Z,11.20
2018-10-16T00:10:30.998Z,11.53
2018-10-16T00:13:00.992Z,12.23
2018-10-16T00:15:30.915Z,11.10
2018-10-16T00:18:00.906Z,11.10
2018-10-16T00:20:30.655Z,11.30
2018-10-16T00:23:00.489Z,11.77
2018-10-16T00:25:30.277Z,12.67
2018-10-16T00:28:00.096Z,11.93
2018-10-16T00:30:30.025Z,10.50
2018-10-16T00:32:59.914Z,10.20
2018-10-16T00:35:29.895Z,11.57
2018-10-16T00:37:59.670Z,12.10
2018-10-16T00:40:29.435Z,13.13
2018-10-16T00:42:59.557Z,12.33
2018-10-16T00:45:29.492Z,11.13
2018-10-16T00:47:59.474Z,10.87
2018-10-16T00:50:29.265Z,11.60
2018-10-16T00:52:59.042Z,11.97
2018-10-16T00:55:28.937Z,11.73
2018-10-16T00:57:58.756Z,11.87
2018-10-16T01:00:28.620Z,10.33
2018-10-16T01:02:58.581Z,11.60
2018-10-16T01:05:28.333Z,10.93
2018-10-16T01:07:58.212Z,10.90
2018-10-16T01:10:28.032Z,11.50
2018-10-16T01:12:57.943Z,11.93
2018-10-16T01:15:27.752Z,11.43
2018-10-16T01:17:57.671Z,10.67
2018-10-16T01:20:27.565Z,12.07
2018-10-16T01:22:58.106Z,10.67
2018-10-16T01:25:27.992Z,11.80
2018-10-16T01:27:57.884Z,11.47
2018-10-16T01:30:27.665Z,10.53
2018-10-16T01:32:57.664Z,11.27
2018-10-16T01:35:27.500Z,11.13
2018-10-16T01:37:57.442Z,12.00
2018-10-16T01:40:27.281Z,10.23
2018-10-16T01:42:57.060Z,11.63
2018-10-16T01:45:26.892Z,11.70
2018-10-16T01:47:56.675Z,11.63
2018-10-16T01:50:26.643Z,13.27
2018-10-16T01:52:56.518Z,12.10
2018-10-16T01:55:26.476Z,11.80
2018-10-16T01:57:56.281Z,11.20
2018-10-16T02:00:26.168Z,11.30
2018-10-16T02:02:56.054Z,12.60
2018-10-16T02:05:25.916Z,11.33
2018-10-16T02:07:55.895Z,11.90
2018-10-16T02:10:25.709Z,10.60
2018-10-16T02:12:55.634Z,11.50
2018-10-16T02:15:25.566Z,11.10
2018-10-16T02:17:55.322Z,11.40
2018-10-16T02:20:25.171Z,11.90
2018-10-16T02:22:55.056Z,10.77
2018-10-16T02:25:24.989Z,10.70
2018-10-16T02:27:54.982Z,11.30
2018-10-16T02:30:24.808Z,11.63
2018-10-16T02:32:54.606Z,11.10
2018-10-16T02:35:24.404Z,12.10
2018-10-16T02:37:54.279Z,11.53
2018-10-16T02:40:24.191Z,12.40
2018-10-16T02:42:53.898Z,12.50
2018-10-16T02:45:23.759Z,12.17
2018-10-16T02:47:53.588Z,12.27
2018-10-16T02:50:23.607Z,11.50
2018-10-16T02:52:53.528Z,12.70
2018-10-16T02:55:23.380Z,10.57
2018-10-16T02:57:53.220Z,12.10
2018-10-16T03:00:23.026Z,11.77
2018-10-16T03:02:52.963Z,12.83
2018-10-16T03:05:22.864Z,12.03
2018-10-16T03:07:52.759Z,13.00
2018-10-16T03:10:22.683Z,13.27
2018-10-16T03:12:52.461Z,11.87
2018-10-16T03:15:22.332Z,12.70
2018-10-16T03:17:52.147Z,11.07
2018-10-16T03:20:22.169Z,13.10
2018-10-16T03:22:52.139Z,12.70
2018-10-16T03:25:21.972Z,12.80
2018-10-16T03:27:51.792Z,12.07
2018-10-16T03:30:21.776Z,11.50
2018-10-16T03:32:51.706Z,12.00
2018-10-16T03:35:21.695Z,11.67
2018-10-16T03:37:51.585Z,11.97
2018-10-16T03:40:21.381Z,12.40
2018-10-16T03:42:51.227Z,12.90
2018-10-16T03:45:21.073Z,10.90
2018-10-16T03:47:50.879Z,12.70
2018-10-16T03:50:20.795Z,11.73
2018-10-16T03:52:52.598Z,13.17
2018-10-16T03:55:22.443Z,11.50
2018-10-16T03:57:52.482Z,11.50
2018-10-16T04:00:22.351Z,11.60
2018-10-16T04:02:52.353Z,12.90
2018-10-16T04:05:22.208Z,12.43
2018-10-16T04:07:52.086Z,12.20
2018-10-16T04:10:22.087Z,12.27
2018-10-16T04:12:51.996Z,12.00
2018-10-16T04:15:21.831Z,11.70
2018-10-16T04:17:51.684Z,12.23
2018-10-16T04:20:21.911Z,12.00
2018-10-16T04:22:51.964Z,13.63
2018-10-16T04:25:21.862Z,13.47
2018-10-16T04:27:51.789Z,12.53
2018-10-16T04:30:22.037Z,11.53
2018-10-16T04:32:51.962Z,10.97
2018-10-16T04:35:21.793Z,11.83
2018-10-16T04:37:51.651Z,12.33
2018-10-16T04:40:21.464Z,12.17
2018-10-16T04:42:51.398Z,13.17
2018-10-16T04:45:21.176Z,11.63
2018-10-16T04:47:51.072Z,12.30
2018-10-16T04:50:21.073Z,13.50
2018-10-16T04:52:51.156Z,12.50
2018-10-16T04:55:21.035Z,12.47
2018-10-16T04:57:50.948Z,12.70
2018-10-16T05:00:20.943Z,11.67
2018-10-16T05:02:50.759Z,13.63
2018-10-16T05:05:23.986Z,12.87
2018-10-16T05:07:53.836Z,12.27
2018-10-16T05:10:23.710Z,11.93
2018-10-16T05:12:53.563Z,12.73
2018-10-16T05:15:34.579Z,11.70
2018-10-16T05:18:04.547Z,11.40
2018-10-16T05:20:34.377Z,12.50
2018-10-16T05:23:04.335Z,12.50
2018-10-16T05:25:34.115Z,11.80
2018-10-16T05:28:03.989Z,12.73
2018-10-16T05:30:34.296Z,13.23
2018-10-16T05:33:04.189Z,11.90
2018-10-16T05:35:34.151Z,13.90
2018-10-16T05:38:04.534Z,11.97
2018-10-16T05:40:34.397Z,11.70
2018-10-16T05:43:04.282Z,12.67
2018-10-16T05:45:35.981Z,12.80
2018-10-16T05:48:06.135Z,13.40
2018-10-16T05:50:35.971Z,13.70
2018-10-16T05:53:06.051Z,13.87
2018-10-16T05:55:36.079Z,13.30
2018-10-16T05:58:06.292Z,13.10
2018-10-16T06:00:46.601Z,12.57
2018-10-16T06:03:16.428Z,12.87
2018-10-16T06:05:46.293Z,12.97
2018-10-16T06:08:16.247Z,13.30
2018-10-16T06:10:46.161Z,12.70
2018-10-16T06:13:15.959Z,12.97
2018-10-16T06:15:45.752Z,12.30
2018-10-16T06:18:15.519Z,13.30
2018-10-16T06:20:45.402Z,12.70
2018-10-16T06:23:15.234Z,13.60
2018-10-16T06:25:45.303Z,13.10
2018-10-16T06:28:27.506Z,12.80
2018-10-16T06:30:57.414Z,13.63
2018-10-16T06:33:28.898Z,12.93
2018-10-16T06:35:58.563Z,12.77
2018-10-16T06:38:29.336Z,13.17
2018-10-16T06:40:59.469Z,12.20
2018-10-16T06:43:29.172Z,14.20
2018-10-16T06:45:59.020Z,12.23
2018-10-16T06:48:29.239Z,12.80
2018-10-16T06:50:58.935Z,13.90
2018-10-16T06:53:28.832Z,12.60
2018-10-16T06:55:58.714Z,13.50
2018-10-16T06:58:28.560Z,13.70
2018-10-16T07:00:58.394Z,13.73
2018-10-16T07:03:28.464Z,13.50
2018-10-16T07:05:58.428Z,14.83
2018-10-16T07:08:28.316Z,13.80
2018-10-16T07:10:58.146Z,15.07
2018-10-16T07:13:28.162Z,12.77
2018-10-16T07:15:58.143Z,13.50
2018-10-16T07:18:28.019Z,12.80
2018-10-16T07:20:57.960Z,13.63
2018-10-16T07:23:27.975Z,14.03
2018-10-16T07:25:57.690Z,14.77
2018-10-16T07:28:27.579Z,14.50
2018-10-16T07:30:57.371Z,14.87
2018-10-16T07:33:27.344Z,14.63
2018-10-16T07:35:57.180Z,13.07
2018-10-16T07:38:27.183Z,13.93
2018-10-16T07:40:57.104Z,14.87
2018-10-16T07:43:26.971Z,14.00
2018-10-16T07:45:56.915Z,14.00
2018-10-16T07:48:26.777Z,13.43
2018-10-16T07:50:56.554Z,14.17
2018-10-16T07:53:26.443Z,14.23
2018-10-16T07:55:56.587Z,13.00
2018-10-16T07:58:26.447Z,12.67
2018-10-16T08:00:56.241Z,13.73
2018-10-16T08:03:26.147Z,14.30
2018-10-16T08:05:56.110Z,13.13
2018-10-16T08:08:25.937Z,15.23
2018-10-16T08:10:55.782Z,13.93
2018-10-16T08:13:25.568Z,13.87
2018-10-16T08:15:55.544Z,13.57
2018-10-16T08:18:25.487Z,13.40
2018-10-16T08:20:55.346Z,12.90
2018-10-16T08:23:25.185Z,13.17
2018-10-16T08:25:55.152Z,13.03
2018-10-16T08:28:25.140Z,13.07
2018-10-16T08:30:55.027Z,12.90
2018-10-16T08:33:24.888Z,13.13
2018-10-16T08:35:54.973Z,11.53
2018-10-16T08:39:35.228Z,12.47
2018-10-16T08:43:29.199Z,12.37
2018-10-16T08:46:15.820Z,11.70
2018-10-16T08:49:02.946Z,12.70
2018-10-16T08:51:43.988Z,12.17
2018-10-16T08:54:13.735Z,12.60
2018-10-16T08:56:43.475Z,11.80
2018-10-16T08:59:13.310Z,11.60
2018-10-16T09:01:43.078Z,11.87
2018-10-16T09:04:12.874Z,12.57
2018-10-16T09:06:42.767Z,10.77
2018-10-16T09:09:15.320Z,13.20
2018-10-16T09:11:46.568Z,11.03
2018-10-16T09:14:17.161Z,12.20
2018-10-16T09:16:47.034Z,12.60
2018-10-16T09:19:17.119Z,11.60
2018-10-16T09:21:47.014Z,12.17
2018-10-16T09:24:16.912Z,12.07
2018-10-16T09:26:46.760Z,12.60
2018-10-16T09:29:16.659Z,10.93
2018-10-16T09:31:46.528Z,11.20
2018-10-16T09:34:16.484Z,11.50
2018-10-16T09:36:46.333Z,12.17
2018-10-16T09:39:16.381Z,11.60
2018-10-16T09:41:46.317Z,10.70
2018-10-16T09:44:16.245Z,10.30
2018-10-16T09:46:46.106Z,10.07
2018-10-16T09:49:16.059Z,10.27
2018-10-16T09:51:45.810Z,9.83
2018-10-16T09:54:15.748Z,10.43
2018-10-16T09:56:45.687Z,9.67
2018-10-16T09:59:15.586Z,9.43
2018-10-16T10:01:48.200Z,8.70
2018-10-16T10:04:18.172Z,10.17
2018-10-16T10:06:48.102Z,9.00
2018-10-16T10:09:18.041Z,9.07
2018-10-16T10:11:48.855Z,9.30
2018-10-16T10:14:18.709Z,9.20
2018-10-16T10:16:48.569Z,9.50
2018-10-16T10:19:18.629Z,9.57
2018-10-16T10:21:48.462Z,9.13
2018-10-16T10:24:18.210Z,9.17
2018-10-16T10:26:47.975Z,9.80
2018-10-16T10:29:17.792Z,10.03
2018-10-16T10:31:47.606Z,9.83
2018-10-16T10:34:17.534Z,8.37
2018-10-16T10:36:47.430Z,7.80
2018-10-16T10:39:17.377Z,9.57
2018-10-16T10:41:47.187Z,8.10
2018-10-16T10:44:17.026Z,8.20
2018-10-16T10:46:46.876Z,9.40
2018-10-16T10:49:16.695Z,9.47
2018-10-16T10:51:46.544Z,9.60
2018-10-16T10:54:16.514Z,9.73
2018-10-16T10:56:46.396Z,8.67
2018-10-16T10:59:16.200Z,8.47
2018-10-16T11:01:46.065Z,8.27
2018-10-16T11:04:15.848Z,8.60
2018-10-16T11:06:45.730Z,8.63
2018-10-16T11:09:15.858Z,7.40
2018-10-16T11:11:50.895Z,7.50
2018-10-16T11:14:20.732Z,7.20
2018-10-16T11:16:50.572Z,7.30
2018-10-16T11:19:20.875Z,8.20
2018-10-16T11:21:50.908Z,8.20
2018-10-16T11:24:20.722Z,8.20
2018-10-16T11:26:50.701Z,8.73
2018-10-16T11:29:20.543Z,9.17
2018-10-16T11:31:50.440Z,8.10
2018-10-16T11:34:20.433Z,7.77
2018-10-16T11:36:50.315Z,8.80
2018-10-16T11:39:20.299Z,7.80
2018-10-16T11:41:50.320Z,7.40
2018-10-16T11:44:20.420Z,8.00
2018-10-16T11:46:50.234Z,7.80
2018-10-16T11:49:20.023Z,7.57
2018-10-16T11:51:50.140Z,7.60
2018-10-16T11:54:19.831Z,7.60
2018-10-16T11:56:49.635Z,7.53
2018-10-16T11:59:19.422Z,6.63
2018-10-16T12:01:49.311Z,7.43
2018-10-16T12:04:19.172Z,7.60
2018-10-16T12:06:48.912Z,6.63
2018-10-16T12:09:18.872Z,7.20
2018-10-16T12:11:50.791Z,7.10
2018-10-16T12:14:21.233Z,6.23
2018-10-16T12:16:57.280Z,6.60
2018-10-16T12:19:32.335Z,6.50
2018-10-16T12:22:02.231Z,6.10
2018-10-16T12:24:32.215Z,6.83
2018-10-16T12:27:02.088Z,7.80
2018-10-16T12:29:31.977Z,6.53
2018-10-16T12:32:01.740Z,6.77
2018-10-16T12:34:31.627Z,6.37
2018-10-16T12:37:02.641Z,6.80
2018-10-16T12:39:32.585Z,6.77
2018-10-16T12:42:02.439Z,6.93
2018-10-16T12:44:32.223Z,6.57
2018-10-16T12:47:02.040Z,7.13
2018-10-16T12:49:31.922Z,6.47
2018-10-16T12:52:01.624Z,6.23
2018-10-16T12:54:31.504Z,7.90
2018-10-16T12:57:01.423Z,6.60
2018-10-16T12:59:31.009Z,6.20
2018-10-16T13:02:00.821Z,6.63
2018-10-16T13:04:30.624Z,7.10
2018-10-16T13:07:04.608Z,6.30
2018-10-16T13:09:34.334Z,7.00
2018-10-16T13:12:04.203Z,6.07
2018-10-16T13:14:34.103Z,6.80
2018-10-16T13:17:04.012Z,7.30
2018-10-16T13:19:33.815Z,6.70
2018-10-16T13:22:03.663Z,7.10
2018-10-16T13:24:33.514Z,7.10
2018-10-16T13:27:03.375Z,6.67
2018-10-16T13:29:33.593Z,6.57
2018-10-16T13:32:03.138Z,7.07
2018-10-16T13:34:32.819Z,6.07
2018-10-16T13:37:02.702Z,6.30
2018-10-16T13:39:36.152Z,6.30
2018-10-16T13:42:06.028Z,6.73
2018-10-16T13:44:35.843Z,6.50
2018-10-16T13:47:08.996Z,6.77
2018-10-16T13:49:38.738Z,6.77
2018-10-16T13:52:08.579Z,6.80
2018-10-16T13:54:38.386Z,7.03
2018-10-16T13:57:08.158Z,6.50
2018-10-16T13:59:37.866Z,6.80
2018-10-16T14:02:07.736Z,7.27
2018-10-16T14:04:37.558Z,6.50
2018-10-16T14:07:07.661Z,5.97
2018-10-16T14:09:37.633Z,6.67
2018-10-16T14:12:08.259Z,7.00
2018-10-16T14:14:38.039Z,6.70
2018-10-16T14:17:08.471Z,7.10
2018-10-16T14:19:39.062Z,6.97
2018-10-16T14:22:08.992Z,6.83
2018-10-16T14:24:38.654Z,6.30
2018-10-16T14:27:08.853Z,7.07
2018-10-16T14:29:38.868Z,7.53
2018-10-16T14:32:08.714Z,6.70
2018-10-16T14:34:38.662Z,6.83
2018-10-16T14:37:08.387Z,6.10
2018-10-16T14:39:38.258Z,7.03
2018-10-16T14:42:07.966Z,6.80
2018-10-16T14:44:37.793Z,6.90
2018-10-16T14:47:07.690Z,6.60
2018-10-16T14:49:37.781Z,7.10
2018-10-16T14:52:07.812Z,6.80
2018-10-16T14:54:37.504Z,6.23
2018-10-16T14:57:07.319Z,6.83
2018-10-16T14:59:36.986Z,6.90
2018-10-16T15:02:07.225Z,6.60
2018-10-16T15:04:37.259Z,6.53
2018-10-16T15:07:07.002Z,6.97
2018-10-16T15:09:36.947Z,6.67
2018-10-16T15:12:07.152Z,6.90
2018-10-16T15:14:42.174Z,6.43
2018-10-16T15:17:12.773Z,7.30
2018-10-16T15:19:42.981Z,6.60
2018-10-16T15:22:13.317Z,6.83
2018-10-16T15:24:43.206Z,6.70
2018-10-16T15:27:13.179Z,6.77
2018-10-16T15:29:43.403Z,7.20
2018-10-16T15:32:13.602Z,6.63
2018-10-16T15:34:43.490Z,7.47
2018-10-16T15:37:13.421Z,6.97
2018-10-16T15:39:43.500Z,7.30
2018-10-16T15:42:13.557Z,7.20
2018-10-16T15:44:44.537Z,6.90
2018-10-16T15:47:14.463Z,7.17
2018-10-16T15:49:44.584Z,6.90
2018-10-16T15:52:14.451Z,7.23
2018-10-16T15:54:44.467Z,7.40
2018-10-16T15:57:14.560Z,7.80
2018-10-16T15:59:44.469Z,7.23
2018-10-16T16:02:14.324Z,7.27
2018-10-16T16:04:44.129Z,8.00
2018-10-16T16:07:13.874Z,7.60
2018-10-16T16:09:43.691Z,7.57
2018-10-16T16:12:13.831Z,7.90
2018-10-16T16:14:43.915Z,6.57
2018-10-16T16:17:13.980Z,7.83
2018-10-16T16:19:43.882Z,7.73
2018-10-16T16:22:13.935Z,6.97
2018-10-16T16:24:43.900Z,7.53
2018-10-16T16:27:13.961Z,9.10
2018-10-16T16:29:50.168Z,6.90
2018-10-16T16:32:20.060Z,7.00
2018-10-16T16:34:50.153Z,7.80
2018-10-16T16:37:19.879Z,7.07
2018-10-16T16:39:49.675Z,7.00
2018-10-16T16:42:19.634Z,8.50
2018-10-16T16:44:49.627Z,8.20
2018-10-16T16:47:19.492Z,7.13
2018-10-16T16:49:49.273Z,7.57
2018-10-16T16:52:19.135Z,7.80
2018-10-16T16:54:48.925Z,8.17
2018-10-16T16:57:19.843Z,7.73
2018-10-16T16:59:49.902Z,7.57
2018-10-16T17:02:19.849Z,7.97
2018-10-16T17:04:49.657Z,8.53
2018-10-16T17:07:19.713Z,8.30
2018-10-16T17:09:49.409Z,8.47
2018-10-16T17:12:19.617Z,7.70
2018-10-16T17:14:49.362Z,8.10
2018-10-16T17:17:19.515Z,8.27
2018-10-16T17:19:49.467Z,8.47
2018-10-16T17:22:19.524Z,8.13
2018-10-16T17:24:49.377Z,8.00
2018-10-16T17:27:19.406Z,8.10
2018-10-16T17:29:49.148Z,8.50
2018-10-16T17:32:19.244Z,8.80
2018-10-16T17:34:49.394Z,8.80
2018-10-16T17:37:19.215Z,9.10
2018-10-16T17:39:49.083Z,7.90
2018-10-16T17:42:18.851Z,8.73
2018-10-16T17:44:48.724Z,8.90
2018-10-16T17:47:18.719Z,9.77
2018-10-16T17:49:48.556Z,8.90
2018-10-16T17:52:18.558Z,9.57
2018-10-16T17:54:49.618Z,9.63
2018-10-16T17:57:19.390Z,9.40
2018-10-16T17:59:49.424Z,9.00
2018-10-16T18:02:19.540Z,8.40
2018-10-16T18:04:49.608Z,9.40
2018-10-16T18:07:19.617Z,9.23
2018-10-16T18:09:49.438Z,8.50
2018-10-16T18:12:19.470Z,9.00
2018-10-16T18:14:49.209Z,10.00
2018-10-16T18:17:19.075Z,9.47
2018-10-16T18:19:48.776Z,9.47
2018-10-16T18:22:18.644Z,9.67
2018-10-16T18:24:48.360Z,9.87
2018-10-16T18:27:18.137Z,9.40
2018-10-16T18:29:48.266Z,10.27
2018-10-16T18:32:18.148Z,11.13
2018-10-16T18:34:49.382Z,11.00
2018-10-16T18:37:19.402Z,9.77
2018-10-16T18:39:49.417Z,10.30
2018-10-16T18:42:19.268Z,10.60
2018-10-16T18:44:49.090Z,11.10
2018-10-16T18:47:18.860Z,12.70
2018-10-16T18:49:48.870Z,11.70
2018-10-16T18:52:18.777Z,10.80
2018-10-16T18:54:48.723Z,11.10
2018-10-16T18:57:18.781Z,21.40
2018-10-16T18:59:48.853Z,32.43
2018-10-16T19:02:19.025Z,13.97
2018-10-16T19:04:49.096Z,11.53
2018-10-16T19:07:18.942Z,11.47
2018-10-16T19:09:48.937Z,11.73
2018-10-16T19:12:18.711Z,12.30
2018-10-16T19:14:48.429Z,10.63
2018-10-16T19:17:18.429Z,12.10
2018-10-16T19:19:48.308Z,12.13
2018-10-16T19:22:18.082Z,11.90
2018-10-16T19:24:48.199Z,12.17
2018-10-16T19:27:18.395Z,12.10
2018-10-16T19:29:48.163Z,11.70
2018-10-16T19:32:18.014Z,11.37
2018-10-16T19:34:51.409Z,10.70
2018-10-16T19:37:21.394Z,11.60
2018-10-16T19:39:51.138Z,12.40
2018-10-16T19:42:21.193Z,12.70
2018-10-16T19:44:51.350Z,13.50
2018-10-16T19:47:22.542Z,13.13
2018-10-16T19:49:52.763Z,11.50
2018-10-16T19:52:22.920Z,13.20
2018-10-16T19:54:52.990Z,11.43
2018-10-16T19:57:23.104Z,12.77
2018-10-16T19:59:53.239Z,12.93
2018-10-16T20:02:23.013Z,11.97
2018-10-16T20:04:53.112Z,13.17
2018-10-16T20:07:22.886Z,14.07
2018-10-16T20:09:52.593Z,13.30
2018-10-16T20:12:22.405Z,13.33
2018-10-16T20:14:52.367Z,12.47
2018-10-16T20:17:22.135Z,12.40
2018-10-16T20:19:51.843Z,12.17
2018-10-16T20:22:21.596Z,12.53
2018-10-16T20:24:51.796Z,14.43
2018-10-16T20:27:21.539Z,13.10
2018-10-16T20:29:51.587Z,14.80
2018-10-16T20:32:21.400Z,13.03
2018-10-16T20:34:52.400Z,14.53
2018-10-16T20:37:22.481Z,14.47
2018-10-16T20:39:52.239Z,13.47
2018-10-16T20:42:22.106Z,13.60
2018-10-16T20:44:52.095Z,13.00
2018-10-16T20:47:21.883Z,16.43
2018-10-16T20:49:51.884Z,16.00
2018-10-16T20:52:22.954Z,16.13
2018-10-16T20:54:52.942Z,15.67
2018-10-16T20:57:23.687Z,15.77
2018-10-16T20:59:53.827Z,13.57
2018-10-16T21:02:23.598Z,14.03
2018-10-16T21:04:53.779Z,14.73
2018-10-16T21:07:23.532Z,14.13
2018-10-16T21:09:54.118Z,14.70
2018-10-16T21:12:24.082Z,13.77
2018-10-16T21:14:53.787Z,14.13
2018-10-16T21:17:23.674Z,14.40
2018-10-16T21:19:53.801Z,13.67
2018-10-16T21:22:23.554Z,15.37
2018-10-16T21:24:53.699Z,14.50
2018-10-16T21:27:23.458Z,14.60
2018-10-16T21:29:53.331Z,14.57
2018-10-16T21:32:23.150Z,13.53
2018-10-16T21:34:53.121Z,14.53
2018-10-16T21:37:22.979Z,14.50
2018-10-16T21:39:53.155Z,14.73
2018-10-16T21:42:23.229Z,14.47
2018-10-16T21:44:53.305Z,14.57
2018-10-16T21:47:23.452Z,14.60
2018-10-16T21:49:53.291Z,13.60
2018-10-16T21:52:23.292Z,13.77
2018-10-16T21:54:53.082Z,15.50
2018-10-16T21:57:23.019Z,14.70
2018-10-16T21:59:52.867Z,14.63
2018-10-16T22:02:27.605Z,13.57
2018-10-16T22:04:57.395Z,13.77
2018-10-16T22:07:27.091Z,15.43
2018-10-16T22:09:57.242Z,14.23
2018-10-16T22:12:27.407Z,14.87
2018-10-16T22:14:57.135Z,14.83
2018-10-16T22:17:27.183Z,14.97
2018-10-16T22:19:57.200Z,13.60
2018-10-16T22:22:27.226Z,14.50
2018-10-16T22:24:57.076Z,14.63
2018-10-16T22:27:27.319Z,15.53
2018-10-16T22:29:57.072Z,13.30
2018-10-16T22:32:27.058Z,14.23
2018-10-16T22:34:57.143Z,14.60
2018-10-16T22:37:26.852Z,14.50
2018-10-16T22:39:56.977Z,15.50
2018-10-16T22:42:26.963Z,15.60
2018-10-16T22:44:56.847Z,15.13
2018-10-16T22:47:26.879Z,13.30
2018-10-16T22:49:56.846Z,14.30
2018-10-16T22:52:27.255Z,13.53
2018-10-16T22:54:57.252Z,14.50
2018-10-16T22:57:27.239Z,13.90
2018-10-16T22:59:56.992Z,13.30
2018-10-16T23:02:28.078Z,13.77
2018-10-16T23:04:58.816Z,14.00
2018-10-16T23:07:28.938Z,13.97
2018-10-16T23:09:58.687Z,14.17
2018-10-16T23:12:28.483Z,14.60
2018-10-16T23:14:58.474Z,14.37
2018-10-16T23:17:28.422Z,15.73
2018-10-16T23:19:58.444Z,15.60
2018-10-16T23:22:28.402Z,15.23
2018-10-16T23:24:58.249Z,15.80
2018-10-16T23:27:28.336Z,14.13
2018-10-16T23:29:58.356Z,16.60
2018-10-16T23:32:28.178Z,14.40
2018-10-16T23:34:58.263Z,15.63
2018-10-16T23:37:28.025Z,15.00
2018-10-16T23:39:57.807Z,14.80
2018-10-16T23:42:27.575Z,14.40
2018-10-16T23:44:57.367Z,16.40
2018-10-16T23:47:27.393Z,14.77
2018-10-16T23:49:57.221Z,13.77
2018-10-16T23:52:27.057Z,14.43
2018-10-16T23:54:57.188Z,13.40
2018-10-16T23:57:27.535Z,16.07
2018-10-16T23:59:57.720Z,15.30
